Data for 10/12/2006

Time Sea-Level Adjusted Pressure Absolute Pressure Temperature Relative Humidity Dew Point   
(mb) (inHg) (mb) (inHg) (C) (F) (%) (C) (F)
00:05 1020 30.12 849 25.07 6.4 43.5 63 -0.1 31.8
00:10 1020 30.12 849 25.07 5.8 42.4 65 -0.2 31.6
00:15 1020 30.12 849 25.07 5.6 42 66 -0.2 31.6
00:20 1020 30.12 849 25.07 5.4 41.7 67 -0.3 31.5
00:25 1020 30.12 849 25.07 5.5 41.9 66 -0.2 31.6
00:30 1020 30.12 849 25.07 5.8 42.4 65 -0.3 31.5
00:35 1020 30.12 849 25.07 6 42.7 65 -0.1 31.8
00:40 1020 30.12 849 25.07 5.8 42.5 66 -0 31.9
00:45 1020 30.12 849 25.07 5.6 42 67 -0.1 31.8
00:50 1020 30.12 849 25.07 5.5 41.8 66 -0.3 31.5
00:55 1020 30.12 849 25.07 5.6 42 65 -0.5 31.1
01:00 1020 30.12 849 25.07 5.7 42.2 64 -0.5 31.1
01:05 1020 30.12 849 25.07 5.5 41.9 67 -0.1 31.8
01:10 1020 30.12 849 25.07 4.8 40.7 70 -0.1 31.7
01:15 1020 30.12 849 25.07 4.4 39.9 73 0 32
01:20 1020 30.12 849 25.07 4.3 39.7 73 -0.1 31.8
01:25 1020 30.12 849 25.07 4.2 39.6 73 -0.1 31.7
01:30 1020 30.12 849 25.07 4.1 39.3 74 -0.2 31.7
01:35 1020 30.12 849 25.07 4.1 39.4 73 -0.3 31.4
01:40 1020 30.12 849 25.07 4.3 39.8 73 -0.1 31.7
01:45 1020 30.12 849 25.07 4.2 39.5 72 -0.5 31.2
01:50 1020 30.12 849 25.07 4.3 39.8 71 -0.5 31.2
01:55 1020 30.12 849 25.07 3.8 38.9 74 -0.5 31.1
02:00 1020 30.12 849 25.07 3.5 38.3 75 -0.5 31.1
02:05 1020 30.12 849 25.07 3.7 38.7 73 -0.7 30.8
02:10 1020 30.12 849 25.07 3.6 38.5 74 -0.6 30.9
02:15 1020 30.12 849 25.07 3.6 38.5 72 -0.9 30.4
02:20 1020 30.12 849 25.07 3.6 38.4 74 -0.7 30.7
02:25 1020 30.12 849 25.07 3.2 37.8 75 -0.8 30.5
02:30 1020 30.12 849 25.07 3 37.4 76 -0.8 30.6
02:35 1020 30.12 849 25.07 2.6 36.6 78 -0.9 30.4
02:40 1020 30.12 849 25.07 2.4 36.4 78 -1 30.2
02:45 1020 30.12 849 25.07 2.6 36.7 77 -1 30.2
02:50 1020 30.12 849 25.07 2.7 36.9 77 -0.9 30.3
02:55 1020 30.12 849 25.07 2.5 36.5 78 -1 30.3
03:00 1020 30.12 849 25.07 2.4 36.4 78 -1 30.1
03:05 1020 30.12 849 25.07 2.6 36.6 78 -1 30.3
03:10 1020 30.12 849 25.07 2.6 36.6 77 -1 30.2
03:15 1020 30.12 849 25.07 2.4 36.4 78 -1 30.2
03:20 1020 30.12 849 25.07 2.3 36.2 79 -1 30.3
03:25 1020 30.12 849 25.07 2.3 36.1 79 -1 30.3
03:30 1020 30.12 849 25.07 2.3 36.1 79 -1 30.3
03:35 1019 30.09 849 25.07 2.2 36 79 -1 30.2
03:40 1019 30.09 849 25.07 2.2 35.9 79 -1.1 30
03:45 1019 30.09 849 25.07 2.5 36.4 77 -1.1 30
03:50 1019 30.09 849 25.07 2.7 36.9 76 -1 30.1
03:55 1019 30.09 849 25.07 2.8 37 76 -1.1 30.1
04:00 1019 30.09 849 25.07 2.6 36.7 76 -1.1 30
04:05 1019 30.09 849 25.07 2.6 36.6 77 -1.1 30.1
04:10 1019 30.09 849 25.07 2.7 36.9 77 -1 30.2
04:15 1019 30.09 849 25.07 2.7 36.9 76 -1.1 30
04:20 1019 30.09 849 25.07 2.9 37.2 76 -0.9 30.4
04:25 1019 30.09 849 25.07 3 37.4 76 -0.8 30.5
04:30 1019 30.09 849 25.07 3 37.3 76 -0.8 30.5
04:35 1019 30.09 849 25.07 3 37.3 76 -0.8 30.6
04:40 1019 30.09 849 25.07 3.1 37.5 75 -0.9 30.5
04:45 1019 30.09 849 25.07 3.2 37.7 75 -0.8 30.5
04:50 1019 30.09 849 25.07 3.2 37.7 74 -1.1 30
04:55 1019 30.09 849 25.07 3.2 37.7 73 -1.1 30
05:00 1019 30.09 849 25.07 2.9 37.2 75 -1 30.1
05:05 1019 30.09 849 25.07 2.9 37.2 74 -1.4 29.6
05:10 1019 30.09 849 25.07 3.1 37.7 73 -1.3 29.7
05:15 1019 30.09 849 25.07 2.9 37.2 75 -1.1 29.9
05:20 1019 30.09 849 25.07 2.4 36.4 76 -1.4 29.6
05:25 1019 30.09 849 25.07 2.3 36.2 76 -1.4 29.5
05:30 1019 30.09 849 25.07 2.3 36.2 77 -1.3 29.6
05:35 1019 30.09 849 25.07 2.3 36.1 77 -1.4 29.5
05:40 1019 30.09 849 25.07 2.3 36.1 77 -1.3 29.6
05:45 1019 30.09 849 25.07 2.2 35.9 77 -1.4 29.4
05:50 1019 30.09 849 25.07 2.3 36.1 76 -1.6 29.1
05:55 1019 30.09 849 25.07 2.3 36.2 76 -1.5 29.2
06:00 1019 30.09 849 25.07 2.4 36.4 76 -1.4 29.4
06:05 1019 30.09 849 25.07 2.7 36.8 74 -1.4 29.4
06:10 1019 30.09 849 25.07 2.4 36.4 75 -1.5 29.4
06:15 1019 30.09 849 25.07 2.1 35.8 77 -1.5 29.4
06:20 1019 30.09 849 25.07 1.7 35 79 -1.5 29.3
06:25 1019 30.09 849 25.07 1.3 34.3 81 -1.7 28.9
06:30 1019 30.09 849 25.07 1.6 34.9 78 -1.8 28.8
06:35 1019 30.09 848 25.04 1.9 35.4 78 -1.6 29.1
06:40 1019 30.09 848 25.04 1.6 34.9 79 -1.7 29
06:45 1019 30.09 848 25.04 1.5 34.7 79 -1.7 28.9
06:50 1019 30.09 849 25.07 1.2 34.2 81 -1.7 28.9
06:55 1019 30.09 849 25.07 1.1 34.1 80 -2 28.5
07:00 1019 30.09 848 25.04 1.7 35.1 77 -1.9 28.6
07:05 1019 30.09 848 25.04 2.2 35.9 76 -1.6 29
07:10 1019 30.09 848 25.04 2.3 36.2 75 -1.6 29.1
07:15 1019 30.09 848 25.04 2.5 36.4 75 -1.5 29.2
07:20 1019 30.09 848 25.04 2.5 36.4 75 -1.5 29.3
07:25 1019 30.09 849 25.07 2.6 36.6 74 -1.6 29.2
07:30 1019 30.09 848 25.04 2.8 37 74 -1.5 29.3
07:35 1019 30.09 848 25.04 2.5 36.6 76 -1.2 29.8
07:40 1019 30.09 848 25.04 2.4 36.3 76 -1.5 29.3
07:45 1019 30.09 848 25.04 2 35.6 78 -1.4 29.4
07:50 1019 30.09 848 25.04 1.8 35.2 79 -1.5 29.3
07:55 1019 30.09 849 25.07 1.9 35.4 77 -1.7 29
08:00 1019 30.09 849 25.07 2.3 36.2 75 -1.7 28.9
08:05 1019 30.09 849 25.07 3 37.5 72 -1.6 29.1
08:10 1019 30.09 849 25.07 3.4 38.1 70 -1.6 29.1
08:15 1019 30.09 849 25.07 3.6 38.5 68 -1.6 29
08:20 1019 30.09 849 25.07 3.9 39 67 -1.6 29
08:25 1019 30.09 849 25.07 4.1 39.3 68 -1.4 29.5
08:30 1019 30.09 849 25.07 3.9 39 68 -1.6 29.2
08:35 1020 30.12 849 25.07 3.8 38.8 69 -1.5 29.3
08:40 1020 30.12 849 25.07 4.1 39.4 67 -1.5 29.3
08:45 1020 30.12 849 25.07 4.4 40 67 -1.1 30
08:50 1020 30.12 849 25.07 4.2 39.6 67 -1.3 29.7
08:55 1020 30.12 849 25.07 4.7 40.4 66 -1.1 30
09:00 1020 30.12 849 25.07 5.2 41.3 64 -1.1 30
09:05 1020 30.12 849 25.07 5.2 41.3 65 -0.9 30.3
09:10 1020 30.12 849 25.07 5.4 41.8 62 -1.3 29.7
09:15 1020 30.12 849 25.07 6 42.7 61 -1 30.2
09:20 1020 30.12 849 25.07 6.5 43.8 60 -0.7 30.8
09:25 1020 30.12 849 25.07 6.8 44.2 59 -0.8 30.6
09:30 1020 30.12 849 25.07 7 44.7 59 -0.5 31.1
09:35 1020 30.12 849 25.07 7.6 45.6 56 -0.5 31
09:40 1020 30.12 849 25.07 7.5 45.5 57 -0.4 31.3
09:45 1020 30.12 849 25.07 8 46.4 54 -0.7 30.7
09:50 1020 30.12 849 25.07 7.7 45.8 55 -0.8 30.6
09:55 1020 30.12 849 25.07 7.8 46 53 -1.1 30.1
10:00 1020 30.12 849 25.07 7.7 45.9 57 -0.3 31.5
10:05 1020 30.12 849 25.07 7.7 45.9 56 -0.4 31.3
10:10 1020 30.12 849 25.07 8.5 47.3 54 -0.1 31.7
10:15 1020 30.12 849 25.07 8.9 47.9 55 0.3 32.5
10:20 1020 30.12 849 25.07 8.9 48 53 -0.1 31.8
10:25 1020 30.12 849 25.07 9.3 48.8 53 0.4 32.6
10:30 1019 30.09 849 25.07 9.5 49 52 0.1 32.1
10:35 1019 30.09 849 25.07 9.2 48.6 52 -0.1 31.8
10:40 1019 30.09 849 25.07 9.2 48.6 53 0.2 32.3
10:45 1019 30.09 849 25.07 9.5 49.1 51 0 32
10:50 1019 30.09 849 25.07 9.9 49.9 52 0.5 32.9
10:55 1019 30.09 849 25.07 9.8 49.6 52 0.3 32.6
11:00 1019 30.09 848 25.04 10 49.9 50 0 32
11:05 1019 30.09 848 25.04 10.9 51.6 47 -0 31.9
11:10 1019 30.09 848 25.04 11.5 52.7 45 0.1 32.1
11:15 1019 30.09 848 25.04 11.9 53.5 45 0.3 32.6
11:20 1019 30.09 848 25.04 11.8 53.2 47 0.8 33.4
11:25 1019 30.09 848 25.04 12 53.6 46 0.7 33.3
11:30 1019 30.09 848 25.04 12 53.6 45 0.4 32.8
11:35 1019 30.09 848 25.04 12.3 54.2 45 0.7 33.2
11:40 1019 30.09 848 25.04 12.6 54.8 44 0.9 33.6
11:45 1019 30.09 848 25.04 13 55.5 43 0.8 33.5
11:50 1019 30.09 848 25.04 13.4 56.2 40 0.1 32.2
11:55 1019 30.09 848 25.04 13.7 56.7 41 0.8 33.4
12:00 1019 30.09 848 25.04 13.7 56.6 41 0.7 33.2
12:05 1019 30.09 848 25.04 13.9 57 40 0.5 33
12:10 1019 30.09 848 25.04 14.4 58 40 1 33.7
12:15 1019 30.09 848 25.04 14.5 58 39 0.9 33.6
12:20 1019 30.09 848 25.04 14.5 58.1 39 0.8 33.4
12:25 1019 30.09 848 25.04 14.1 57.4 39 0.5 32.9
12:30 1019 30.09 848 25.04 14.2 57.6 37 -0.2 31.6
12:35 1019 30.09 848 25.04 13.8 56.8 39 0.1 32.2
12:40 1019 30.09 848 25.04 14 57.1 35 -1.1 30
12:45 1019 30.09 848 25.04 14.9 58.7 33 -1.2 29.9
12:50 1019 30.09 848 25.04 14.4 57.8 34 -1.1 30
12:55 1019 30.09 848 25.04 13.8 56.8 33 -2.3 27.9
13:00 1018 30.06 848 25.04 13.1 55.5 37 -1.3 29.7
13:05 1018 30.06 848 25.04 14.2 57.6 33 -1.7 28.9
13:10 1018 30.06 848 25.04 14.8 58.7 29 -2.8 26.9
13:15 1018 30.06 847 25.01 14.6 58.2 31 -2.2 28
13:20 1018 30.06 847 25.01 14.8 58.6 33 -1.2 29.9
13:25 1018 30.06 847 25.01 15.6 60 30 -1.7 28.9
13:30 1018 30.06 847 25.01 15.5 60 30 -2 28.5
13:35 1018 30.06 847 25.01 16.1 61 30 -1.5 29.3
13:40 1018 30.06 847 25.01 15.5 60 31 -1.5 29.2
13:45 1018 30.06 847 25.01 14.6 58.3 32 -1.9 28.7
13:50 1018 30.06 847 25.01 14.8 58.7 31 -2.3 27.9
13:55 1018 30.06 847 25.01 15 59 29 -2.6 27.3
14:00 1018 30.06 847 25.01 16.1 60.9 28 -2.3 27.9
14:05 1018 30.06 847 25.01 16.2 61.1 28 -2.2 28.1
14:10 1018 30.06 847 25.01 16 60.7 29 -2.2 28.1
14:15 1018 30.06 847 25.01 15.7 60.2 28 -2.7 27.2
14:20 1017 30.03 847 25.01 16.2 61.1 27 -2.5 27.5
14:25 1017 30.03 847 25.01 16.4 61.5 28 -2.1 28.2
14:30 1017 30.03 847 25.01 16.3 61.4 28 -2.2 28
14:35 1017 30.03 846 24.98 16.9 62.4 26 -2.7 27.2
14:40 1017 30.03 846 24.98 17.2 62.9 26 -2.6 27.3
14:45 1017 30.03 846 24.98 17.1 62.7 26 -2.6 27.3
14:50 1017 30.03 846 24.98 16.6 61.8 27 -2.4 27.6
14:55 1017 30.03 846 24.98 16.7 62.1 26 -2.9 26.8
15:00 1017 30.03 846 24.98 17.2 63 25 -2.9 26.7
15:05 1017 30.03 846 24.98 17.6 63.6 24 -2.9 26.8
15:10 1017 30.03 846 24.98 17 62.5 27 -2.3 27.9
15:15 1017 30.03 846 24.98 16.9 62.5 25 -2.9 26.7
15:20 1017 30.03 846 24.98 17.5 63.5 24 -3 26.6
15:25 1017 30.03 846 24.98 17.8 64 24 -3 26.7
15:30 1017 30.03 846 24.98 17.7 63.9 24 -2.9 26.7
15:35 1017 30.03 846 24.98 18 64.4 24 -3 26.6
15:40 1016 30 846 24.98 17.2 63 26 -2.2 28
15:45 1016 30 846 24.98 15.7 60.2 27 -3 26.6
15:50 1016 30 846 24.98 16.3 61.4 26 -3.2 26.2
15:55 1016 30 846 24.98 17.3 63.1 25 -2.6 27.4
16:00 1016 30 846 24.98 17.8 64 24 -2.7 27.1
16:05 1016 30 846 24.98 17.6 63.7 25 -2.7 27.1
16:10 1016 30 846 24.98 16.1 60.9 27 -2.6 27.3
16:15 1016 30 846 24.98 15.6 60.2 27 -3 26.6
16:20 1016 30 846 24.98 16.2 61.1 28 -2.5 27.5
16:25 1016 30 846 24.98 16.5 61.7 26 -3 26.6
16:30 1016 30 846 24.98 16.5 61.8 25 -3.3 26.1
16:35 1016 30 845 24.95 16.4 61.4 26 -3.2 26.2
16:40 1016 30 845 24.95 17.2 62.9 25 -3.1 26.5
16:45 1016 30 845 24.95 17 62.6 26 -2.7 27.1
16:50 1016 30 845 24.95 16.1 61 27 -2.7 27.1
16:55 1016 30 845 24.95 16.7 62.1 25 -3.2 26.2
17:00 1016 30 845 24.95 16.1 61 26 -3.2 26.3
17:05 1016 30 845 24.95 16.2 61.1 26 -3.5 25.7
17:10 1016 30 845 24.95 16 60.8 26 -3.5 25.7
17:15 1016 30 845 24.95 16.3 61.3 25 -3.6 25.5
17:20 1016 30 845 24.95 16.2 61.2 25 -3.7 25.3
17:25 1016 30 845 24.95 16.5 61.6 25 -3.7 25.4
17:30 1016 30 845 24.95 16.5 61.8 25 -3.4 25.9
17:35 1016 30 845 24.95 16.7 62 24 -3.7 25.3
17:40 1016 30 845 24.95 17.3 63.2 24 -3.5 25.7
17:45 1016 30 845 24.95 17.5 63.6 26 -2 28.3
17:50 1016 30 845 24.95 17.4 63.4 24 -3 26.5
17:55 1016 30 845 24.95 16.5 61.6 26 -3 26.6
18:00 1016 30 845 24.95 16.5 61.7 26 -2.9 26.8
18:05 1016 30 845 24.95 16.2 61.1 26 -3 26.6
18:10 1016 30 845 24.95 16 60.7 27 -3 26.5
18:15 1016 30 845 24.95 16 60.7 27 -3.1 26.4
18:20 1016 30 845 24.95 15.8 60.4 29 -2.3 27.9
18:25 1015 29.97 845 24.95 15.7 60.2 28 -2.8 27
18:30 1015 29.97 845 24.95 15.6 60.1 28 -2.6 27.4
18:35 1015 29.97 845 24.95 15.5 59.9 29 -2.5 27.5
18:40 1015 29.97 845 24.95 15 59.1 30 -2.4 27.7
18:45 1015 29.97 845 24.95 14.7 58.4 31 -2.1 28.1
18:50 1015 29.97 845 24.95 14.5 58 32 -2 28.4
18:55 1015 29.97 845 24.95 14.3 57.8 32 -2.2 28.1
19:00 1015 29.97 845 24.95 14 57.2 36 -0.6 30.9
19:05 1015 29.97 845 24.95 13.1 55.6 44 1.2 34.2
19:10 1015 29.97 845 24.95 11.5 52.7 49 1.2 34.1
19:15 1015 29.97 845 24.95 10.6 51.2 51 1.1 33.9
19:20 1015 29.97 845 24.95 10.4 50.7 52 0.9 33.6
19:25 1015 29.97 845 24.95 10.3 50.5 52 1 33.9
19:30 1015 29.97 845 24.95 10.1 50.1 53 0.9 33.7
19:35 1015 29.97 845 24.95 9.9 49.8 54 1.1 33.9
19:40 1015 29.97 845 24.95 9.5 49.1 55 1 33.9
19:45 1016 30 845 24.95 9.4 48.9 55 0.9 33.7
19:50 1015 29.97 845 24.95 9.2 48.6 56 0.9 33.7
19:55 1015 29.97 845 24.95 9 48.2 56 0.8 33.5
20:00 1015 29.97 845 24.95 8.8 47.9 57 0.9 33.6
20:05 1015 29.97 845 24.95 8.7 47.7 57 0.8 33.5
20:10 1016 30 845 24.95 8.6 47.5 58 0.9 33.7
20:15 1016 30 845 24.95 8.4 47.1 59 0.9 33.7
20:20 1016 30 845 24.95 8.2 46.7 59 0.7 33.2
20:25 1016 30 845 24.95 8.1 46.7 59 0.6 33.1
20:30 1016 30 845 24.95 8.1 46.6 59 0.7 33.3
20:35 1016 30 845 24.95 8.1 46.6 58 0.4 32.7
20:40 1016 30 845 24.95 8.1 46.5 58 0.3 32.6
20:45 1016 30 845 24.95 8 46.5 58 0.2 32.4
20:50 1016 30 845 24.95 8 46.4 58 0.3 32.5
20:55 1016 30 845 24.95 8 46.3 59 0.4 32.7
21:00 1016 30 845 24.95 7.7 45.9 59 0.3 32.5
21:05 1016 30 845 24.95 7.5 45.4 60 0.3 32.5
21:10 1016 30 845 24.95 7 44.6 62 0.2 32.3
21:15 1016 30 845 24.95 6.7 44.1 62 -0.1 31.8
21:20 1016 30 845 24.95 6.8 44.3 62 -0 31.9
21:25 1016 30 845 24.95 6.9 44.4 62 0 32
21:30 1016 30 845 24.95 6.8 44.2 61 -0.2 31.7
21:35 1016 30 845 24.95 7 44.7 58 -0.6 30.9
21:40 1016 30 845 24.95 7.1 44.8 59 -0.3 31.4
21:45 1016 30 845 24.95 6.9 44.4 60 -0.2 31.6
21:50 1016 30 845 24.95 6.6 44 59 -0.7 30.7
21:55 1016 30 845 24.95 7 44.5 56 -1.2 29.8
22:00 1016 30 845 24.95 7.8 46.1 52 -1.3 29.6
22:05 1016 30 845 24.95 8 46.3 53 -0.9 30.3
22:10 1016 30 845 24.95 7.8 46 55 -0.7 30.7
22:15 1016 30 845 24.95 7.3 45.2 58 -0.4 31.3
22:20 1016 30 845 24.95 7.1 44.7 58 -0.6 31
22:25 1016 30 845 24.95 7.3 45.2 55 -1 30.2
22:30 1016 30 845 24.95 7.7 45.8 55 -0.7 30.7
22:35 1016 30 845 24.95 7.7 45.9 55 -0.7 30.7
22:40 1016 30 845 24.95 7.7 45.8 56 -0.6 30.9
22:45 1016 30 845 24.95 7.5 45.5 57 -0.6 31
22:50 1016 30 845 24.95 7.2 44.9 57 -0.7 30.7
22:55 1016 30 845 24.95 7.2 44.9 57 -0.8 30.6
23:00 1016 30 845 24.95 7.1 44.7 57 -0.8 30.6
23:05 1016 30 845 24.95 7.1 44.8 58 -0.6 30.9
23:10 1016 30 846 24.98 7.1 44.7 58 -0.7 30.8
23:15 1016 30 846 24.98 7.1 44.7 57 -0.9 30.4
23:20 1016 30 846 24.98 7.2 44.9 57 -0.9 30.5
23:25 1017 30.03 846 24.98 7.2 44.9 57 -0.7 30.8
23:30 1017 30.03 846 24.98 7 44.6 57 -0.9 30.3
23:35 1017 30.03 846 24.98 6.9 44.5 57 -1.1 30.1
23:40 1017 30.03 846 24.98 6.7 44 57 -1.2 29.8
23:45 1017 30.03 846 24.98 6.6 43.8 57 -1.3 29.7
23:50 1017 30.03 846 24.98 6.3 43.3 60 -1 30.2
23:55 1017 30.03 846 24.98 6 42.8 59 -1.4 29.4
24:00 1017 30.03 846 24.98 6 42.9 59 -1.4 29.5